METAR Data
IDs: Format: Raw Decoded Include TAF

Data at: 1729 UTC 03 Jun 2020

KMHL 031715Z AUTO 19006G14KT 10SM CLR 29/22 A2989 RMK AO2 PWINO
KMHL 031655Z AUTO 22006KT 193V263 10SM CLR 29/22 A2989 RMK AO2 PWINO
KMHL 031635Z AUTO 23008KT 10SM CLR 28/21 A2989 RMK AO2 PWINO
KMHL 031615Z AUTO 24009G14KT 10SM SCT033 28/21 A2990 RMK AO2 PWINO
KMHL 031555Z AUTO 26008KT 10SM SCT031 28/21 A2990 RMK AO2 PWINO
KMHL 031535Z AUTO 25009G15KT 10SM CLR 27/21 A2991 RMK AO2 PWINO
KMHL 031515Z AUTO 26009G17KT 10SM CLR 27/21 A2990 RMK AO2 PWINO
KMHL 031455Z AUTO 23008G18KT 10SM CLR 27/21 A2990 RMK AO2 PWINO
KMHL 031435Z AUTO 22011KT 10SM SCT080 26/21 A2991 RMK AO2 PWINO
KMHL 031415Z AUTO 23010G17KT 10SM CLR 26/21 A2992 RMK AO2 PWINO
KMHL 031355Z AUTO 25009G16KT 10SM CLR 25/21 A2992 RMK AO2 PWINO
KMHL 031335Z AUTO 23013G17KT 10SM CLR 25/21 A2992 RMK AO2 PWINO
KMHL 031315Z AUTO 22009G14KT 10SM CLR 24/20 A2992 RMK AO2 PWINO
KMHL 031255Z AUTO 23009KT 10SM CLR 23/20 A2992 RMK AO2 PWINO
KMHL 031235Z AUTO 22010G15KT 10SM CLR 22/20 A2992 RMK AO2 PWINO
KMHL 031215Z AUTO 21010G15KT 10SM CLR 22/20 A2991 RMK AO2 PWINO
KMHL 031155Z AUTO 21011KT 10SM CLR 21/20 A2991 RMK AO2 PWINO
KMHL 031135Z AUTO 21011KT 10SM CLR 21/19 A2990 RMK AO2 PWINO
KMHL 031115Z AUTO 20009KT 10SM CLR 21/19 A2990 RMK AO2 PWINO
KMHL 031055Z AUTO 21009KT 10SM CLR 21/19 A2991 RMK AO2 PWINO
KMHL 031035Z AUTO 21007KT 10SM CLR 21/19 A2992 RMK AO2 PWINO
KMHL 031015Z AUTO 21008KT 10SM CLR 21/19 A2992 RMK AO2 PWINO
KMHL 030955Z AUTO 21007KT 10SM CLR 21/19 A2992 RMK AO2 PWINO
KMHL 030935Z AUTO 21006KT 10SM CLR 21/19 A2993 RMK AO2 PWINO
KMHL 030915Z AUTO 21007KT 10SM CLR 21/19 A2993 RMK AO2 PWINO
KMHL 030855Z AUTO 21007KT 10SM CLR 21/18 A2993 RMK AO2 PWINO
KMHL 030835Z AUTO 21005KT 10SM CLR 21/18 A2993 RMK AO2 PWINO
KMHL 030815Z AUTO 21006KT 10SM CLR 21/18 A2994 RMK AO2 PWINO
KMHL 030755Z AUTO 21006KT 10SM CLR 21/18 A2994 RMK AO2 PWINO
KMHL 030735Z AUTO 21006KT 10SM CLR 21/18 A2995 RMK AO2 PWINO
KMHL 030715Z AUTO 20006KT 10SM CLR 21/18 A2995 RMK AO2 PWINO
KMHL 030655Z AUTO 20005KT 10SM CLR 21/18 A2996 RMK AO2 PWINO
KMHL 030635Z AUTO 20006KT 10SM CLR 22/18 A2997 RMK AO2 PWINO
KMHL 030615Z AUTO 21006KT 10SM CLR 22/18 A2997 RMK AO2 PWINO
KMHL 030555Z AUTO 21005KT 10SM CLR 22/18 A2997 RMK AO2 PWINO
KMHL 030535Z AUTO 22006KT 10SM CLR 22/18 A2997 RMK AO2 PWINO
KMHL 030515Z AUTO 21005KT 10SM CLR 22/18 A2997 RMK AO2 PWINO
KMHL 030455Z AUTO 21007KT 10SM CLR 22/18 A2997 RMK AO2 PWINO
KMHL 030435Z AUTO 20005KT 10SM CLR 22/18 A2997 RMK AO2 PWINO
KMHL 030415Z AUTO 21005KT 10SM CLR 23/18 A2997 RMK AO2 PWINO
KMHL 030355Z AUTO 20004KT 10SM CLR 23/18 A2998 RMK AO2 PWINO
KMHL 030335Z AUTO 21005KT 10SM CLR 23/18 A2997 RMK AO2 PWINO
KMHL 030315Z AUTO 21005KT 10SM CLR 23/18 A2996 RMK AO2 PWINO
KMHL 030255Z AUTO 20007KT 10SM CLR 24/18 A2995 RMK AO2 PWINO
KMHL 030235Z AUTO 19006KT 10SM CLR 24/18 A2995 RMK AO2 PWINO
KMHL 030215Z AUTO 19005KT 10SM CLR 25/18 A2995 RMK AO2 PWINO
KMHL 030155Z AUTO 18005KT 10SM CLR 25/18 A2995 RMK AO2 PWINO
KMHL 030135Z AUTO 19006KT 10SM CLR 26/18 A2995 RMK AO2 PWINO
KMHL 030115Z AUTO 19005KT 10SM CLR 26/19 A2995 RMK AO2 PWINO
KMHL 030055Z AUTO 20006KT 10SM CLR 27/19 A2995 RMK AO2 PWINO
KMHL 030035Z AUTO 20008KT 10SM CLR 27/19 A2995 RMK AO2 PWINO
KMHL 030015Z AUTO 20009KT 10SM CLR 28/19 A2995 RMK AO2 PWINO
KMHL 022355Z AUTO 20010G16KT 10SM CLR 28/19 A2995 RMK AO2 PWINO
KMHL 022335Z AUTO 21008KT 10SM CLR 28/17 A2995 RMK AO2 PWINO
KMHL 022315Z AUTO 20012G15KT 10SM CLR 29/18 A2995 RMK AO2 PWINO
KMHL 022255Z AUTO 21013KT 10SM CLR 30/18 A2996 RMK AO2 PWINO
KMHL 022235Z AUTO 20009G17KT 10SM CLR 30/18 A2996 RMK AO2 PWINO
KMHL 022215Z AUTO 21012G17KT 10SM CLR 30/18 A2996 RMK AO2 PWINO
KMHL 022155Z AUTO 20014KT 10SM CLR 30/18 A2997 RMK AO2 PWINO
KMHL 022135Z AUTO 21009G16KT 10SM CLR 30/18 A2997 RMK AO2 PWINO
KMHL 022115Z AUTO 20010KT 10SM CLR 30/17 A2997 RMK AO2 PWINO
KMHL 022055Z AUTO 21011G15KT 10SM CLR 30/18 A2998 RMK AO2 PWINO
KMHL 022035Z AUTO 23011G16KT 10SM CLR 30/18 A2998 RMK AO2 PWINO
KMHL 022015Z AUTO 20012G16KT 10SM CLR 30/18 A2999 RMK AO2 PWINO
KMHL 021955Z AUTO 21009G14KT 10SM CLR 30/18 A2999 RMK AO2 PWINO
KMHL 021935Z AUTO 22013KT 10SM CLR 29/18 A3000 RMK AO2 PWINO
KMHL 021915Z AUTO 19010G15KT 10SM CLR 29/19 A3000 RMK AO2 PWINO
KMHL 021855Z AUTO 20008G17KT 10SM CLR 29/19 A3001 RMK AO2 PWINO
KMHL 021835Z AUTO 19010G17KT 10SM CLR 28/19 A3001 RMK AO2 PWINO
KMHL 021815Z AUTO 21012G16KT 10SM CLR 28/19 A3002 RMK AO2 PWINO
KMHL 021755Z AUTO 22009G16KT 193V253 10SM CLR 28/19 A3002 RMK AO2 PWINO
KMHL 021735Z AUTO 21009KT 183V243 10SM CLR 27/18 A3003 RMK AO2 PWINO
KMHL 021715Z AUTO 22012G16KT 10SM CLR 27/18 A3003 RMK AO2 PWINO
KMHL 021655Z AUTO 22010G14KT 10SM CLR 27/18 A3004 RMK AO2 PWINO
KMHL 021635Z AUTO 21012G16KT 10SM CLR 26/18 A3004 RMK AO2 PWINO
KMHL 021615Z AUTO 23012G15KT 10SM CLR 26/18 A3005 RMK AO2 PWINO
KMHL 021555Z AUTO 24012G15KT 10SM CLR 26/18 A3005 RMK AO2 PWINO
KMHL 021535Z AUTO 22009G16KT 10SM CLR 25/18 A3005 RMK AO2 PWINO
KMHL 021515Z AUTO 22011G15KT 10SM CLR 25/18 A3005 RMK AO2 PWINO
KMHL 021455Z AUTO 24010G15KT 10SM CLR 25/18 A3006 RMK AO2 PWINO
KMHL 021435Z AUTO 22010G14KT 10SM CLR 24/18 A3007 RMK AO2 PWINO
KMHL 021415Z AUTO 23010KT 10SM CLR 23/17 A3007 RMK AO2 PWINO
KMHL 021355Z AUTO 23007G16KT 10SM CLR 22/17 A3007 RMK AO2 PWINO
KMHL 021335Z AUTO 22007KT 10SM CLR 22/17 A3007 RMK AO2 PWINO
KMHL 021315Z AUTO 21009KT 10SM CLR 21/17 A3007 RMK AO2 PWINO
KMHL 021255Z AUTO 22008KT 10SM CLR 21/17 A3006 RMK AO2 PWINO
KMHL 021235Z AUTO 21005KT 10SM CLR 20/16 A3006 RMK AO2 PWINO
KMHL 021215Z AUTO 20005KT 10SM CLR 18/16 A3006 RMK AO2 PWINO
KMHL 021155Z AUTO 20004KT 10SM CLR 18/16 A3006 RMK AO2 PWINO
KMHL 021135Z AUTO 20005KT 10SM CLR 17/16 A3005 RMK AO2 PWINO
KMHL 021115Z AUTO 20004KT 10SM CLR 17/16 A3005 RMK AO2 PWINO
KMHL 021055Z AUTO 20003KT 10SM CLR 17/16 A3005 RMK AO2 PWINO
KMHL 021035Z AUTO 00000KT 10SM CLR 17/16 A3005 RMK AO2 PWINO
KMHL 021015Z AUTO 21005KT 10SM CLR 18/16 A3004 RMK AO2 PWINO
KMHL 020955Z AUTO 21004KT 10SM CLR 18/16 A3004 RMK AO2 PWINO
KMHL 020935Z AUTO 21005KT 10SM CLR 18/16 A3004 RMK AO2 PWINO
KMHL 020915Z AUTO 20007KT 10SM CLR 18/16 A3003 RMK AO2 PWINO
KMHL 020855Z AUTO 20005KT 10SM CLR 19/16 A3003 RMK AO2 PWINO
KMHL 020835Z AUTO 21005KT 10SM CLR 19/16 A3003 RMK AO2 PWINO
KMHL 020815Z AUTO 21006KT 10SM CLR 20/16 A3003 RMK AO2 PWINO
KMHL 020755Z AUTO 21006KT 10SM CLR 20/16 A3003 RMK AO2 PWINO
KMHL 020735Z AUTO 21006KT 10SM CLR 20/16 A3004 RMK AO2 PWINO
KMHL 020715Z AUTO 21005KT 10SM CLR 20/16 A3004 RMK AO2 PWINO
KMHL 020655Z AUTO 21007KT 10SM CLR 20/16 A3004 RMK AO2 PWINO
KMHL 020635Z AUTO 21005KT 10SM CLR 20/16 A3004 RMK AO2 PWINO
KMHL 020615Z AUTO 21005KT 10SM CLR 20/16 A3005 RMK AO2 PWINO
KMHL 020555Z AUTO 21005KT 10SM CLR 20/16 A3005 RMK AO2 PWINO
KMHL 020535Z AUTO 21005KT 10SM CLR 20/17 A3006 RMK AO2 PWINO